createdAt,value
2018-03-06T00:00:35.546Z,42.22
2018-03-06T00:03:08.566Z,38.65
2018-03-06T00:05:37.854Z,37.08
2018-03-06T00:08:06.706Z,40.15
2018-03-06T00:10:36.775Z,40.20
2018-03-06T00:13:05.455Z,40.10
2018-03-06T00:15:34.304Z,43.92
2018-03-06T00:18:03.467Z,38.22
2018-03-06T00:20:32.137Z,41.83
2018-03-06T00:23:00.999Z,40.10
2018-03-06T00:25:29.855Z,42.50
2018-03-06T00:27:59.582Z,40.20
2018-03-06T00:30:28.874Z,39.40
2018-03-06T00:32:58.499Z,38.80
2018-03-06T00:35:28.688Z,38.83
2018-03-06T00:37:57.570Z,37.63
2018-03-06T00:40:26.868Z,38.50
2018-03-06T00:42:55.724Z,40.10
2018-03-06T00:45:25.440Z,39.47
2018-03-06T00:47:54.131Z,39.88
2018-03-06T00:50:22.824Z,40.88
2018-03-06T00:52:51.674Z,41.63
2018-03-06T00:55:21.311Z,40.40
2018-03-06T00:57:50.932Z,40.75
2018-03-06T01:00:19.615Z,37.25
2018-03-06T01:02:48.474Z,37.60
2018-03-06T01:05:18.886Z,37.95
2018-03-06T01:07:47.419Z,35.50
2018-03-06T01:10:16.540Z,37.45
2018-03-06T01:12:45.408Z,37.22
2018-03-06T01:15:14.267Z,33.95
2018-03-06T01:17:43.139Z,36.35
2018-03-06T01:20:12.773Z,35.63
2018-03-06T01:22:42.394Z,35.92
2018-03-06T01:25:11.259Z,33.97
2018-03-06T01:27:39.935Z,34.90
2018-03-06T01:30:09.810Z,35.65
2018-03-06T01:32:38.667Z,34.10
2018-03-06T01:35:07.535Z,34.63
2018-03-06T01:37:37.145Z,35.20
2018-03-06T01:40:05.959Z,34.10
2018-03-06T01:42:34.640Z,36.63
2018-03-06T01:45:03.204Z,35.60
2018-03-06T01:47:33.574Z,35.65
2018-03-06T01:50:02.095Z,34.47
2018-03-06T01:52:31.695Z,37.05
2018-03-06T01:55:00.085Z,37.22
2018-03-06T01:57:29.048Z,36.30
2018-03-06T01:59:57.953Z,35.88
2018-03-06T02:02:26.808Z,37.58
2018-03-06T02:04:55.680Z,37.10
2018-03-06T02:07:27.871Z,38.05
2018-03-06T02:09:56.748Z,37.22
2018-03-06T02:12:25.612Z,37.95
2018-03-06T02:14:54.473Z,35.55
2018-03-06T02:17:23.327Z,35.55
2018-03-06T02:22:25.795Z,36.20
2018-03-06T02:24:55.456Z,37.10
2018-03-06T02:27:24.750Z,35.33
2018-03-06T02:29:53.642Z,35.90
2018-03-06T02:34:55.224Z,32.78
2018-03-06T02:37:23.763Z,33.30
2018-03-06T02:39:52.451Z,33.13
2018-03-06T02:42:21.904Z,38.35
2018-03-06T02:44:50.769Z,35.13
2018-03-06T02:47:19.634Z,34.70
2018-03-06T02:49:52.103Z,37.28
2018-03-06T02:52:21.736Z,35.30
2018-03-06T02:54:51.919Z,33.63
2018-03-06T02:57:20.791Z,35.28
2018-03-06T02:59:50.048Z,37.10
2018-03-06T03:02:18.608Z,34.00
2018-03-06T03:04:48.241Z,35.28
2018-03-06T03:07:17.948Z,37.15
2018-03-06T03:09:46.816Z,36.47
2018-03-06T03:12:16.471Z,36.58
2018-03-06T03:14:45.186Z,40.33
2018-03-06T03:17:14.068Z,37.83
2018-03-06T03:19:42.943Z,37.83
2018-03-06T03:22:11.811Z,36.75
2018-03-06T03:24:40.486Z,39.55
2018-03-06T03:27:10.125Z,38.63
2018-03-06T03:29:39.001Z,41.90
2018-03-06T03:32:07.882Z,43.30
2018-03-06T03:34:37.522Z,41.05
2018-03-06T03:37:06.379Z,44.40
2018-03-06T03:39:36.006Z,42.00
2018-03-06T03:42:04.726Z,43.10
2018-03-06T03:44:33.550Z,44.42
2018-03-06T03:47:02.594Z,44.55
2018-03-06T03:49:31.463Z,42.08
2018-03-06T03:52:01.091Z,43.28
2018-03-06T03:54:29.947Z,44.63
2018-03-06T03:57:01.343Z,44.45
2018-03-06T03:59:30.217Z,44.53
2018-03-06T04:01:59.074Z,45.30
2018-03-06T04:04:27.780Z,45.47
2018-03-06T04:06:57.414Z,47.30
2018-03-06T04:12:05.414Z,41.03
2018-03-06T04:14:35.046Z,48.80
2018-03-06T04:17:03.908Z,44.80
2018-03-06T04:19:34.171Z,47.40
2018-03-06T04:22:03.027Z,42.92
2018-03-06T04:24:32.662Z,43.10
2018-03-06T04:27:01.579Z,44.22
2018-03-06T04:29:31.180Z,42.30
2018-03-06T04:32:00.128Z,44.50
2018-03-06T04:34:29.761Z,45.35
2018-03-06T04:36:58.656Z,44.42
2018-03-06T04:39:27.562Z,46.72
2018-03-06T04:41:56.421Z,43.47
2018-03-06T04:44:25.288Z,42.85
2018-03-06T04:46:54.078Z,43.60
2018-03-06T04:49:23.916Z,45.20
2018-03-06T04:51:53.071Z,42.10
2018-03-06T04:54:21.927Z,43.13
2018-03-06T04:56:50.791Z,42.70
2018-03-06T04:59:19.492Z,43.05
2018-03-06T05:01:48.362Z,42.60
2018-03-06T05:04:18.008Z,41.60
2018-03-06T05:06:48.286Z,44.90
2018-03-06T05:09:17.734Z,42.15
2018-03-06T05:11:45.934Z,42.53
2018-03-06T05:14:14.795Z,44.95
2018-03-06T05:16:43.660Z,41.70
2018-03-06T05:19:12.351Z,42.47
2018-03-06T05:21:41.987Z,40.75
2018-03-06T05:24:10.881Z,41.85
2018-03-06T05:26:39.740Z,42.40
2018-03-06T05:29:09.385Z,41.28
2018-03-06T05:31:38.242Z,43.25
2018-03-06T05:34:07.889Z,41.78
2018-03-06T05:36:36.734Z,42.75
2018-03-06T05:39:06.363Z,42.90
2018-03-06T05:41:35.234Z,41.58
2018-03-06T05:44:04.938Z,42.60
2018-03-06T05:46:34.570Z,41.88
2018-03-06T05:49:03.437Z,39.50
2018-03-06T05:51:32.292Z,42.10
2018-03-06T05:54:01.146Z,43.50
2018-03-06T05:56:30.006Z,38.80
2018-03-06T05:58:58.866Z,40.45
2018-03-06T06:01:27.722Z,42.78
2018-03-06T06:03:56.406Z,39.08
2018-03-06T06:06:25.260Z,42.88
2018-03-06T06:08:54.113Z,48.13
2018-03-06T06:11:22.970Z,43.80
2018-03-06T06:13:51.834Z,44.40
2018-03-06T06:16:21.263Z,43.47
2018-03-06T06:18:50.864Z,48.53
2018-03-06T06:21:19.527Z,55.97
2018-03-06T06:23:48.412Z,45.17
2018-03-06T06:26:17.926Z,39.85
2018-03-06T06:28:47.362Z,40.72
2018-03-06T06:31:16.027Z,42.20
2018-03-06T06:33:45.479Z,42.22
2018-03-06T06:36:14.155Z,41.22
2018-03-06T06:38:42.827Z,44.80
2018-03-06T06:41:12.464Z,41.45
2018-03-06T06:43:41.323Z,40.75
2018-03-06T06:46:09.983Z,42.00
2018-03-06T06:48:38.650Z,41.42
2018-03-06T06:51:07.322Z,39.72
2018-03-06T06:53:36.003Z,40.38
2018-03-06T06:56:04.340Z,38.00
2018-03-06T06:58:33.120Z,39.45
2018-03-06T07:01:02.551Z,37.05
2018-03-06T07:03:31.234Z,39.25
2018-03-06T07:05:59.903Z,38.67
2018-03-06T07:08:28.567Z,39.72
2018-03-06T07:10:57.234Z,41.53
2018-03-06T07:13:25.911Z,37.63
2018-03-06T07:15:54.594Z,38.72
2018-03-06T07:18:23.254Z,37.92
2018-03-06T07:20:51.918Z,38.50
2018-03-06T07:23:21.372Z,35.85
2018-03-06T07:25:50.967Z,39.55
2018-03-06T07:28:19.630Z,38.05
2018-03-06T07:30:48.290Z,37.78
2018-03-06T07:33:17.726Z,38.38
2018-03-06T07:35:46.402Z,37.45
2018-03-06T07:38:15.762Z,39.58
2018-03-06T07:40:44.428Z,36.05
2018-03-06T07:43:13.110Z,35.95
2018-03-06T07:45:42.611Z,36.72
2018-03-06T07:48:11.143Z,39.17
2018-03-06T07:50:39.802Z,42.17
2018-03-06T07:53:08.476Z,40.78
2018-03-06T07:55:37.142Z,37.05
2018-03-06T07:58:05.481Z,36.17
2018-03-06T08:00:34.159Z,34.03
2018-03-06T08:03:02.837Z,34.60
2018-03-06T08:05:31.340Z,35.55
2018-03-06T08:08:00.862Z,35.00
2018-03-06T08:10:30.366Z,33.97
2018-03-06T08:12:59.792Z,35.53
2018-03-06T08:15:28.463Z,36.60
2018-03-06T08:17:57.895Z,36.30
2018-03-06T08:20:26.558Z,36.00
2018-03-06T08:22:56.524Z,36.00
2018-03-06T08:25:25.185Z,34.92
2018-03-06T08:27:53.846Z,40.53
2018-03-06T08:30:22.515Z,37.17
2018-03-06T08:32:52.216Z,33.80
2018-03-06T08:35:20.895Z,36.70
2018-03-06T08:37:49.567Z,35.50
2018-03-06T08:40:18.230Z,36.08
2018-03-06T08:42:46.890Z,35.20
2018-03-06T08:45:15.571Z,34.08
2018-03-06T08:47:44.992Z,36.58
2018-03-06T08:50:13.656Z,32.90
2018-03-06T08:52:43.086Z,33.35
2018-03-06T08:55:12.179Z,31.92
2018-03-06T08:57:40.842Z,35.58
2018-03-06T09:00:10.272Z,32.05
2018-03-06T09:02:39.033Z,34.85
2018-03-06T09:05:08.468Z,32.03
2018-03-06T09:07:37.153Z,32.13
2018-03-06T09:10:05.818Z,32.15
2018-03-06T09:12:35.251Z,31.00
2018-03-06T09:15:03.597Z,31.92
2018-03-06T09:17:32.795Z,30.73
2018-03-06T09:20:02.230Z,31.48
2018-03-06T09:22:30.902Z,31.70
2018-03-06T09:24:59.563Z,32.40
2018-03-06T09:27:29.002Z,30.42
2018-03-06T09:29:57.673Z,29.40
2018-03-06T09:32:26.339Z,32.85
2018-03-06T09:34:55.779Z,29.77
2018-03-06T09:37:24.851Z,29.73
2018-03-06T09:39:54.292Z,30.08
2018-03-06T09:42:23.201Z,28.58
2018-03-06T09:44:51.886Z,29.12
2018-03-06T09:47:21.632Z,27.15
2018-03-06T09:49:50.290Z,29.92
2018-03-06T09:52:18.991Z,29.00
2018-03-06T09:54:47.835Z,29.27
2018-03-06T09:57:16.637Z,27.98
2018-03-06T09:59:45.302Z,27.80
2018-03-06T10:02:15.476Z,28.12
2018-03-06T10:04:44.138Z,28.48
2018-03-06T10:07:12.482Z,28.87
2018-03-06T10:09:41.907Z,26.05
2018-03-06T10:12:10.570Z,27.52
2018-03-06T10:14:40.017Z,28.65
2018-03-06T10:17:08.674Z,27.30
2018-03-06T10:19:37.354Z,24.60
2018-03-06T10:22:06.015Z,27.33
2018-03-06T10:24:34.675Z,25.95
2018-03-06T10:27:03.327Z,25.75
2018-03-06T10:29:31.663Z,24.77
2018-03-06T10:32:00.314Z,25.65
2018-03-06T10:34:28.970Z,24.45
2018-03-06T10:36:57.625Z,26.05
2018-03-06T10:39:26.304Z,26.10
2018-03-06T10:41:54.782Z,25.88
2018-03-06T10:44:23.607Z,24.52
2018-03-06T10:46:52.283Z,24.08
2018-03-06T10:49:22.522Z,25.42
2018-03-06T10:51:51.175Z,25.30
2018-03-06T10:54:19.851Z,26.77
2018-03-06T10:56:48.510Z,26.70
2018-03-06T10:59:17.167Z,25.45
2018-03-06T11:01:45.638Z,26.33
2018-03-06T11:04:14.318Z,24.58
2018-03-06T11:06:43.755Z,24.00
2018-03-06T11:09:12.427Z,25.70
2018-03-06T11:11:41.094Z,25.85
2018-03-06T11:14:10.533Z,26.73
2018-03-06T11:16:39.242Z,26.10
2018-03-06T11:19:07.914Z,25.33
2018-03-06T11:21:37.011Z,23.60
2018-03-06T11:24:05.695Z,25.37
2018-03-06T11:26:34.354Z,23.75
2018-03-06T11:29:03.787Z,26.87
2018-03-06T11:31:32.457Z,25.23
2018-03-06T11:34:01.131Z,23.20
2018-03-06T11:36:29.813Z,24.70
2018-03-06T11:38:58.489Z,23.95
2018-03-06T11:41:27.972Z,24.75
2018-03-06T11:43:56.653Z,24.60
2018-03-06T11:46:26.299Z,25.80
2018-03-06T11:48:55.725Z,25.08
2018-03-06T11:51:24.407Z,25.15
2018-03-06T11:53:53.074Z,24.30
2018-03-06T11:56:22.517Z,24.05
2018-03-06T11:58:51.174Z,24.25
2018-03-06T12:01:19.862Z,21.45
2018-03-06T12:03:48.965Z,27.65
2018-03-06T12:06:18.148Z,24.45
2018-03-06T12:08:47.575Z,25.00
2018-03-06T12:11:16.342Z,25.00
2018-03-06T12:13:46.535Z,23.33
2018-03-06T12:16:15.252Z,23.65
2018-03-06T12:18:44.046Z,25.70
2018-03-06T12:21:12.725Z,25.05
2018-03-06T12:23:42.164Z,22.98
2018-03-06T12:26:10.848Z,24.52
2018-03-06T12:28:39.514Z,24.05
2018-03-06T12:31:08.190Z,38.05
2018-03-06T12:33:37.696Z,24.63
2018-03-06T12:36:07.127Z,22.87
2018-03-06T12:38:35.799Z,24.42
2018-03-06T12:41:04.501Z,23.98
2018-03-06T12:43:33.169Z,23.75
2018-03-06T12:46:01.851Z,23.80
2018-03-06T12:48:31.331Z,24.42
2018-03-06T12:51:00.003Z,25.30
2018-03-06T12:53:28.668Z,27.55
2018-03-06T12:55:57.331Z,26.55
2018-03-06T12:58:26.403Z,26.00
2018-03-06T13:00:55.832Z,26.50
2018-03-06T13:03:24.503Z,24.85
2018-03-06T13:05:53.931Z,26.60
2018-03-06T13:08:22.763Z,27.30
2018-03-06T13:10:51.420Z,26.35
2018-03-06T13:13:20.100Z,28.50
2018-03-06T13:15:48.448Z,26.02
2018-03-06T13:18:17.686Z,27.65
2018-03-06T13:20:46.356Z,25.27
2018-03-06T13:23:15.032Z,24.90
2018-03-06T13:25:44.459Z,25.25
2018-03-06T13:28:13.135Z,23.42
2018-03-06T13:30:41.814Z,24.58
2018-03-06T13:33:10.479Z,25.85
2018-03-06T13:35:39.140Z,26.87
2018-03-06T13:38:08.717Z,24.27
2018-03-06T13:40:37.465Z,23.00
2018-03-06T13:43:06.899Z,24.05
2018-03-06T13:45:35.567Z,22.77
2018-03-06T13:48:04.759Z,22.73
2018-03-06T13:50:34.209Z,24.60
2018-03-06T13:53:02.883Z,23.48
2018-03-06T13:55:32.542Z,22.98
2018-03-06T13:58:01.723Z,23.20
2018-03-06T14:00:31.198Z,24.60
2018-03-06T14:02:59.872Z,22.52
2018-03-06T14:05:28.603Z,25.25
2018-03-06T14:07:56.957Z,24.75
2018-03-06T14:10:25.628Z,23.92
2018-03-06T14:12:54.306Z,24.27
2018-03-06T14:15:22.987Z,24.33
2018-03-06T14:17:52.265Z,23.92
2018-03-06T14:20:20.932Z,25.98
2018-03-06T14:22:49.611Z,22.37
2018-03-06T14:25:18.690Z,23.70
2018-03-06T14:27:47.379Z,23.40
2018-03-06T14:30:16.644Z,24.40
2018-03-06T14:32:45.306Z,22.27
2018-03-06T14:35:13.989Z,23.10
2018-03-06T14:37:42.654Z,23.52
2018-03-06T14:40:11.328Z,23.60
2018-03-06T14:42:40.189Z,23.20
2018-03-06T14:45:08.871Z,22.85
2018-03-06T14:47:37.538Z,22.87
2018-03-06T14:50:06.639Z,20.70
2018-03-06T14:52:36.140Z,23.70
2018-03-06T14:55:05.234Z,24.52
2018-03-06T14:57:34.678Z,22.92
2018-03-06T15:00:03.020Z,23.62
2018-03-06T15:02:32.448Z,25.02
2018-03-06T15:05:01.127Z,23.50
2018-03-06T15:07:29.802Z,23.90
2018-03-06T15:09:59.247Z,22.30
2018-03-06T15:12:27.927Z,22.75
2018-03-06T15:14:56.671Z,23.70
2018-03-06T15:17:25.337Z,24.10
2018-03-06T15:19:54.014Z,24.98
2018-03-06T15:22:22.683Z,25.08
2018-03-06T15:24:51.351Z,23.48
2018-03-06T15:27:20.027Z,22.15
2018-03-06T15:29:48.705Z,23.70
2018-03-06T15:32:18.143Z,24.50
2018-03-06T15:34:46.830Z,25.05
2018-03-06T15:37:15.512Z,24.83
2018-03-06T15:39:44.257Z,24.35
2018-03-06T15:42:13.698Z,24.35
2018-03-06T15:44:42.403Z,26.17
2018-03-06T15:47:11.119Z,26.10
2018-03-06T15:49:39.807Z,25.20
2018-03-06T15:52:08.472Z,25.77
2018-03-06T15:54:37.154Z,24.87
2018-03-06T15:57:05.663Z,23.75
2018-03-06T15:59:34.916Z,27.98
2018-03-06T16:02:03.577Z,29.70
2018-03-06T16:04:33.010Z,32.67
2018-03-06T16:07:01.703Z,31.27
2018-03-06T16:09:30.590Z,33.28
2018-03-06T16:11:59.252Z,35.30
2018-03-06T16:14:28.500Z,33.47
2018-03-06T16:16:57.171Z,36.95
2018-03-06T16:19:25.516Z,36.97
2018-03-06T16:21:53.866Z,39.50
2018-03-06T16:24:22.542Z,40.67
2018-03-06T16:26:51.263Z,39.30
2018-03-06T16:29:20.731Z,39.58
2018-03-06T16:31:49.403Z,38.17
2018-03-06T16:34:18.090Z,41.83
2018-03-06T16:36:47.455Z,42.50
2018-03-06T16:39:16.128Z,39.65
2018-03-06T16:41:46.254Z,38.58
2018-03-06T16:44:15.697Z,39.50
2018-03-06T16:46:44.446Z,38.65
2018-03-06T16:49:14.706Z,40.30
2018-03-06T16:51:43.375Z,39.88
2018-03-06T16:54:12.080Z,38.28
2018-03-06T16:56:40.761Z,39.88
2018-03-06T16:59:09.460Z,40.80
2018-03-06T17:01:38.718Z,42.75
2018-03-06T17:04:08.163Z,42.00
2018-03-06T17:06:36.706Z,40.38
2018-03-06T17:09:06.337Z,39.13
2018-03-06T17:11:35.039Z,39.55
2018-03-06T17:14:04.001Z,38.60
2018-03-06T17:16:33.477Z,41.08
2018-03-06T17:19:03.030Z,39.13
2018-03-06T17:21:32.443Z,39.30
2018-03-06T17:24:01.136Z,38.83
2018-03-06T17:26:29.649Z,38.97
2018-03-06T17:28:58.336Z,39.53
2018-03-06T17:31:27.002Z,40.55
2018-03-06T17:33:56.290Z,39.50
2018-03-06T17:36:25.046Z,40.33
2018-03-06T17:38:54.495Z,39.80
2018-03-06T17:41:23.172Z,40.03
2018-03-06T17:43:51.898Z,40.20
2018-03-06T17:46:20.888Z,40.95
2018-03-06T17:48:49.606Z,41.30
2018-03-06T17:51:19.035Z,40.63
2018-03-06T17:53:47.719Z,39.58
2018-03-06T17:56:16.383Z,38.72
2018-03-06T17:58:45.814Z,39.25
2018-03-06T18:01:14.475Z,37.70
2018-03-06T18:03:43.910Z,39.38
2018-03-06T18:06:12.669Z,37.42
2018-03-06T18:08:42.107Z,40.03
2018-03-06T18:11:10.771Z,38.33
2018-03-06T18:13:39.451Z,36.60
2018-03-06T18:16:08.890Z,34.63
2018-03-06T18:18:37.562Z,35.28
2018-03-06T18:21:06.277Z,32.20
2018-03-06T18:23:35.870Z,31.52
2018-03-06T18:26:04.545Z,32.20
2018-03-06T18:28:33.231Z,30.52
2018-03-06T18:31:01.903Z,30.58
2018-03-06T18:33:30.589Z,31.40
2018-03-06T18:36:01.351Z,32.83
2018-03-06T18:38:30.533Z,30.48
2018-03-06T18:40:59.812Z,32.13
2018-03-06T18:43:29.263Z,31.50
2018-03-06T18:45:57.972Z,32.55
2018-03-06T18:48:26.641Z,31.15
2018-03-06T18:51:06.411Z,31.90
2018-03-06T18:53:35.109Z,31.15
2018-03-06T18:56:03.450Z,30.25
2018-03-06T18:58:32.344Z,31.20
2018-03-06T19:04:28.601Z,30.45
2018-03-06T19:07:14.325Z,30.52
2018-03-06T19:09:43.246Z,31.05
2018-03-06T19:12:11.951Z,29.80
2018-03-06T19:14:40.653Z,30.98
2018-03-06T19:17:09.359Z,29.77
2018-03-06T19:19:38.022Z,31.10
2018-03-06T19:22:06.693Z,33.63
2018-03-06T19:24:35.626Z,34.15
2018-03-06T19:27:07.448Z,33.60
2018-03-06T19:29:36.107Z,34.30
2018-03-06T19:32:05.543Z,33.55
2018-03-06T19:34:34.660Z,35.92
2018-03-06T19:37:04.176Z,33.10
2018-03-06T19:39:33.626Z,34.03
2018-03-06T19:42:02.304Z,34.97
2018-03-06T19:44:31.751Z,34.08
2018-03-06T19:47:00.443Z,35.20
2018-03-06T19:49:29.144Z,32.60
2018-03-06T19:51:57.808Z,34.55
2018-03-06T19:54:27.304Z,36.83
2018-03-06T19:56:55.961Z,34.97
2018-03-06T19:59:25.414Z,35.75
2018-03-06T20:01:54.081Z,35.83
2018-03-06T20:04:22.741Z,35.67
2018-03-06T20:06:52.178Z,37.33
2018-03-06T20:09:20.893Z,36.50
2018-03-06T20:11:50.478Z,35.30
2018-03-06T20:14:24.716Z,35.60
2018-03-06T20:16:53.434Z,37.17
2018-03-06T20:19:27.481Z,37.75
2018-03-06T20:21:56.856Z,36.15
2018-03-06T20:24:31.839Z,38.83
2018-03-06T20:27:00.511Z,35.47
2018-03-06T20:29:29.191Z,38.40
2018-03-06T20:32:04.107Z,38.60
2018-03-06T20:34:33.209Z,39.45
2018-03-06T20:37:01.890Z,38.22
2018-03-06T20:39:36.795Z,37.10
2018-03-06T20:42:05.329Z,37.83
2018-03-06T20:44:33.996Z,36.60
2018-03-06T20:47:08.115Z,38.92
2018-03-06T20:49:36.799Z,37.47
2018-03-06T20:52:05.155Z,36.47
2018-03-06T20:54:39.359Z,37.78
2018-03-06T20:57:08.035Z,34.90
2018-03-06T20:59:36.723Z,35.25
2018-03-06T21:02:05.056Z,34.35
2018-03-06T21:04:33.723Z,36.30
2018-03-06T21:07:03.171Z,37.25
2018-03-06T21:09:31.859Z,34.58
2018-03-06T21:12:00.534Z,35.50
2018-03-06T21:14:29.196Z,32.88
2018-03-06T21:16:57.874Z,34.33
2018-03-06T21:19:27.357Z,37.50
2018-03-06T21:21:56.190Z,34.63
2018-03-06T21:24:25.145Z,32.90
2018-03-06T21:26:53.810Z,32.00
2018-03-06T21:29:22.488Z,33.08
2018-03-06T21:31:51.199Z,32.70
2018-03-06T21:34:20.014Z,33.53
2018-03-06T21:36:49.458Z,33.38
2018-03-06T21:39:18.119Z,33.80
2018-03-06T21:41:46.779Z,33.25
2018-03-06T21:44:15.448Z,34.47
2018-03-06T21:46:44.883Z,32.40
2018-03-06T21:49:14.955Z,33.40
2018-03-06T21:51:43.631Z,31.90
2018-03-06T21:54:12.311Z,33.88
2018-03-06T21:56:40.985Z,35.03
2018-03-06T21:59:09.655Z,33.08
2018-03-06T22:01:39.086Z,35.15
2018-03-06T22:04:07.755Z,31.80
2018-03-06T22:06:36.419Z,30.98
2018-03-06T22:09:05.515Z,29.37
2018-03-06T22:11:34.954Z,31.80
2018-03-06T22:14:03.622Z,31.65
2018-03-06T22:16:31.959Z,31.75
2018-03-06T22:19:00.639Z,33.22
2018-03-06T22:21:29.308Z,34.42
2018-03-06T22:23:57.984Z,32.67
2018-03-06T22:26:26.651Z,31.90
2018-03-06T22:28:55.311Z,32.15
2018-03-06T22:31:23.975Z,32.60
2018-03-06T22:33:52.636Z,32.63
2018-03-06T22:36:21.307Z,33.72
2018-03-06T22:38:49.974Z,35.10
2018-03-06T22:41:19.407Z,34.60
2018-03-06T22:43:48.083Z,33.45
2018-03-06T22:46:16.750Z,33.67
2018-03-06T22:48:46.187Z,33.53
2018-03-06T22:51:14.868Z,33.20
2018-03-06T22:53:43.544Z,33.10
2018-03-06T22:56:12.207Z,32.97
2018-03-06T22:58:41.643Z,31.33
2018-03-06T23:01:10.306Z,32.75
2018-03-06T23:03:39.747Z,32.85
2018-03-06T23:06:08.417Z,33.45
2018-03-06T23:08:37.087Z,35.03
2018-03-06T23:11:05.756Z,31.75
2018-03-06T23:13:34.425Z,31.33
2018-03-06T23:16:03.095Z,33.95
2018-03-06T23:18:31.771Z,32.53
2018-03-06T23:21:00.466Z,30.33
2018-03-06T23:23:30.071Z,32.22
2018-03-06T23:25:58.740Z,32.67
2018-03-06T23:28:27.406Z,34.03
2018-03-06T23:30:56.075Z,32.45
2018-03-06T23:33:25.518Z,34.70
2018-03-06T23:35:54.962Z,31.17
2018-03-06T23:38:23.680Z,32.95
2018-03-06T23:40:53.115Z,30.00
2018-03-06T23:43:21.790Z,30.60
2018-03-06T23:45:50.467Z,31.73
2018-03-06T23:48:19.129Z,30.25
2018-03-06T23:50:47.802Z,30.40
2018-03-06T23:53:16.486Z,32.83
2018-03-06T23:55:45.147Z,30.00
2018-03-06T23:58:13.815Z,28.80
